Etusivu
METAR-TAF:

METAR-TAF

Lentoasemat :

Lyon, Ranska

Leveyspiiri: 45-43N, Pituuspiiri: 004-57E, korkeus merenpinnasta: 200 m

Tämänhetkinen sää

Tämä raportti tehtiin 17 minuuttia sitten, kello 00.30 UTC
Tuuli 2 kn etelästä
Lämpötila 3°C
Kosteus 87%
Ilmanpaine 1023 hPa
Näkyvyys 10 km tai enemmän
ei pilviä alle 1500 m:ssä eikä cumulonimbus-pilviä

METAR: LFLY 200030Z AUTO 18002KT CAVOK 03/01 Q1023 NOSIG

Aika: 01:47 (00:47 UTC)

Sääennuste

Tämä raportti tehtiin 1 tunti ja 47 minuuttia sitten, kello 23.00 UTC
Ennuste voimassa 20. päivästä klo 00 UTC - 20. päivään klo 24 UTC
Tuuli 2 kn eri suunnista
Näkyvyys 10 km tai enemmän
ei pilviä alle 1500 m:ssä eikä cumulonimbus-pilviä
Todennäköisyys 40% :
Ajoittain
20. päivästä klo 05 UTC - 20. päivään klo 08 UTC
Näkyvyys: 4000 m
utua

TAF: LFLY 192300Z 2000/2024 VRB02KT CAVOK PROB40 TEMPO 2005/2008 4000 BR

Säähavainnot ja -ennusteet yli 4000 lentoasemalta (METAR- ja TAF-raportit).

Käytössä olevat sääasemat on merkitty karttaan keltaisilla ja punaisilla pisteillä.

Aseta hiiri pisteen päälle nähdäksesi sääaseman nimen.

Klikkaa sitten nähdäksesi säähavainnot ja -ennusteet.

Kartan vaihtaminen: klikkaa mustalla rastilla varustettuja vihreitä pisteitä, niin voit zoomata sisään; viivalla varustettua vihreää pistettä, niin voit zoomata ulos tai vihreitä nuolia, niin pääset viereisille kartoille.


METAR-TAF: